John C. Munro Hamilton International Airport
CYHM : rendu visible

Aérodrome :











RETROUVEZ-NOUS SUR...

 
LOGIN :

S'inscrire | Disclaimer

   EN    FR    IT 

 









Légende :    VFR   VFR Marginal   IFR   IFR Intensif   IFR Très Intensif
Visi : 
Plafond : 
>= 8 km
>= 3000ft
5 à 8 km
1000 à 3000 ft
1500m à 5 km
500 à 1000 ft
800 à 1500m
200 à 500 ft
< 800m
< 200 ft
Symboles :   Orages  Brouillard  Fortes neiges  Fortes précipitations  Vent > 20 kt






- Altitude de l'aérodrome : 780 ft
- Code IATA : YHM


CYHM - John C. Munro Hamilton International

DERNIER METAR :
  • 121200Z 28005KT 15SM FEW120 SCT240 16/13 A3011 RMK AC1CI3 AC TR SLP197 DENSITY ALT 900FT

METARs EXPIRÉS :
  • 121100Z 29003KT 15SM FEW180 BKN250 13/12 A3009 RMK AC1CI5 SLP191
  • 121000Z 26004KT 15SM BKN250 12/11 A3007 RMK CC7 SLP184

TAF TAF CYHM
Valide du 12 à 12h jusqu'au 13 à 12h UTC


121138Z 1212/1312 30005KT P6SM FEW240
BECMG 1214/1216 27005KT
BECMG 1221/1223 VRB03KT RMK NXT FCST BY 121800Z
FIR CZYZ / Amérique du Nord



MET'MAP, la Météo Aéronautique d'un coup d'oeil ! - Copyright ORBIFLY Décembre 2007 - Disclaimer

ORBIFLY MET'MAP TEAM :

Programmation & Développement : Alexandra Zaïnal
Sur une idée originale de : Baudouin d'Aumeries
Assistance à la programmation : Marc-Olivier Méhu
Soutien technique & logistique : Manuel Goepfert

Contact : metmap@orbifly.com




SOURCES & CREDITS :

   NOAA       Earth
Advisory